Time;durP1;ratioP1;P1;durP2;ratioP2;P2;SDS_P1;SDS_P2;PMS_P1;PMS_P2;Temp;Humidity;BMP_temperature;BMP_pressure;BME280_temperature;BME280_humidity;BME280_pressure;Samples;Min_cycle;Max_cycle;Signal;HPM_P1;HPM_P2
2023/01/01 00:01:39;;;;;;;;;;;11.80;99.90;;;;;;5031653;28;19929;-74
2023/01/01 00:04:10;;;;;;;;;;;11.80;99.90;;;;;;5046816;28;19940;-74
2023/01/01 00:06:38;;;;;;;;;;;11.70;99.90;;;;;;5044675;28;20015;-73
2023/01/01 00:11:51;;;;;;;;;;;11.70;99.90;;;;;;5037958;28;20043;-73
2023/01/01 00:14:19;;;;;;;;;;;11.70;99.90;;;;;;5040972;28;19929;-74
2023/01/01 00:16:47;;;;;;;;;;;11.70;99.90;;;;;;5043437;28;19925;-73
2023/01/01 00:19:16;;;;;;;;;;;11.70;99.90;;;;;;5047126;28;19943;-73
2023/01/01 00:21:45;;;;;;;;;;;11.50;99.90;;;;;;5042139;28;19940;-74
2023/01/01 00:24:13;;;;;;;;;;;11.50;99.90;;;;;;5041832;28;19925;-73
2023/01/01 00:26:40;;;;;;;;;;;11.50;99.90;;;;;;5044883;28;20023;-73
2023/01/01 00:29:08;;;;;;;;;;;11.50;99.90;;;;;;5053859;28;20015;-73
2023/01/01 00:31:36;;;;;;;;;;;11.50;99.90;;;;;;5043421;28;20028;-74
2023/01/01 00:34:03;;;;;;;;;;;11.40;99.90;;;;;;5037952;28;19959;-74
2023/01/01 00:36:32;;;;;;;;;;;11.40;99.90;;;;;;5070724;28;20457;-74
2023/01/01 00:39:01;;;;;;;;;;;11.40;99.90;;;;;;5055550;28;20023;-75
2023/01/01 00:41:29;;;;;;;;;;;11.40;99.90;;;;;;5036989;28;19929;-75
2023/01/01 00:43:57;;;;;;;;;;;11.40;99.90;;;;;;5052501;28;19932;-74
2023/01/01 00:46:25;;;;;;;;;;;11.40;99.90;;;;;;5051491;28;19924;-74
2023/01/01 00:48:52;;;;;;;;;;;11.40;99.90;;;;;;5050165;28;19932;-75
2023/01/01 00:51:20;;;;;;;;;;;11.40;99.90;;;;;;5056032;28;19924;-74
2023/01/01 00:53:49;;;;;;;;;;;11.30;99.90;;;;;;5039241;28;20031;-74
2023/01/01 00:56:17;;;;;;;;;;;11.40;99.90;;;;;;5052109;28;19928;-74
2023/01/01 00:58:55;;;;;;;;;;;11.30;99.90;;;;;;5052298;28;19925;-74
2023/01/01 01:01:28;;;;;;;;;;;11.30;99.90;;;;;;5039736;28;20023;-74
2023/01/01 01:03:56;;;;;;;;;;;11.30;99.90;;;;;;5050088;28;19931;-73
2023/01/01 01:06:24;;;;;;;;;;;11.40;99.90;;;;;;5056410;28;19929;-74
2023/01/01 01:08:53;;;;;;;;;;;11.40;99.90;;;;;;5065670;28;19948;-74
2023/01/01 01:11:21;;;;;;;;;;;11.40;99.90;;;;;;5067175;22;19927;-64
2023/01/01 01:13:50;;;;;;;;;;;11.40;99.90;;;;;;5024405;28;20024;-65
2023/01/01 01:16:18;;;;;;;;;;;11.40;99.90;;;;;;5026632;28;19929;-62
2023/01/01 01:18:46;;;;;;;;;;;11.50;99.90;;;;;;5041729;28;19925;-62
2023/01/01 01:21:15;;;;;;;;;;;11.50;99.90;;;;;;5026066;28;19926;-62
2023/01/01 01:23:42;;;;;;;;;;;11.50;99.90;;;;;;5012001;28;20402;-62
2023/01/01 01:26:13;;;;;;;;;;;11.50;99.90;;;;;;5021855;28;19929;-62
2023/01/01 01:28:41;;;;;;;;;;;11.60;99.90;;;;;;5029807;28;19929;-62
2023/01/01 01:31:16;;;;;;;;;;;11.70;99.90;;;;;;5017882;28;19925;-62
2023/01/01 01:33:44;;;;;;;;;;;11.70;99.90;;;;;;5025405;28;19932;-62
2023/01/01 01:36:13;;;;;;;;;;;11.80;99.90;;;;;;5028512;28;19975;-62
2023/01/01 01:38:40;;;;;;;;;;;11.80;99.90;;;;;;5030545;28;19931;-62
2023/01/01 01:41:09;;;;;;;;;;;11.80;99.90;;;;;;5031722;28;19925;-62
2023/01/01 01:43:56;;;;;;;;;;;11.80;99.90;;;;;;5025813;28;19976;-62
2023/01/01 01:46:28;;;;;;;;;;;11.80;99.90;;;;;;5025477;28;19934;-62
2023/01/01 01:48:58;;;;;;;;;;;11.70;99.90;;;;;;5028056;28;19925;-62
2023/01/01 01:51:27;;;;;;;;;;;11.80;99.90;;;;;;5024815;28;19936;-62
2023/01/01 01:53:57;;;;;;;;;;;11.80;99.90;;;;;;5031436;28;20411;-62
2023/01/01 01:56:27;;;;;;;;;;;11.70;99.90;;;;;;5035409;28;19925;-64
2023/01/01 01:58:57;;;;;;;;;;;11.70;99.90;;;;;;5036598;28;20012;-63
2023/01/01 02:01:25;;;;;;;;;;;11.70;99.90;;;;;;5036889;28;19925;-63
2023/01/01 02:03:56;;;;;;;;;;;11.70;99.90;;;;;;5038380;28;19925;-63
2023/01/01 02:06:24;;;;;;;;;;;11.70;99.90;;;;;;5034399;28;19951;-63
2023/01/01 02:08:53;;;;;;;;;;;11.60;99.90;;;;;;5028664;28;19925;-63
2023/01/01 02:11:20;;;;;;;;;;;11.60;99.90;;;;;;5030010;28;19929;-63
2023/01/01 02:13:49;;;;;;;;;;;11.50;99.90;;;;;;5029774;28;19925;-63
2023/01/01 02:16:20;;;;;;;;;;;11.60;99.90;;;;;;5033622;28;19925;-63
2023/01/01 02:18:50;;;;;;;;;;;11.60;99.90;;;;;;5049539;28;19925;-63
2023/01/01 02:21:21;;;;;;;;;;;11.50;99.90;;;;;;5051840;28;19983;-63
2023/01/01 02:23:55;;;;;;;;;;;11.50;99.90;;;;;;5037647;28;20031;-63
2023/01/01 02:26:37;;;;;;;;;;;11.50;99.90;;;;;;5037672;28;19925;-63
2023/01/01 02:29:10;;;;;;;;;;;11.50;99.90;;;;;;5037503;28;19925;-63
2023/01/01 02:31:42;;;;;;;;;;;11.40;99.90;;;;;;5036602;28;19924;-63
2023/01/01 02:34:12;;;;;;;;;;;11.30;99.90;;;;;;5037756;28;19960;-63
2023/01/01 02:36:44;;;;;;;;;;;11.40;99.90;;;;;;5037361;28;19929;-62
2023/01/01 02:39:12;;;;;;;;;;;11.30;99.90;;;;;;5037546;28;19925;-63
2023/01/01 02:41:41;;;;;;;;;;;11.40;99.90;;;;;;5036908;28;19932;-63
2023/01/01 02:44:10;;;;;;;;;;;11.30;99.90;;;;;;5036051;28;19925;-63
2023/01/01 02:46:38;;;;;;;;;;;11.30;99.90;;;;;;5037423;28;19932;-63
2023/01/01 02:49:06;;;;;;;;;;;11.30;99.90;;;;;;5034286;28;20019;-63
2023/01/01 02:51:43;;;;;;;;;;;11.30;99.90;;;;;;5022465;28;19935;-63
2023/01/01 02:54:18;;;;;;;;;;;11.30;99.90;;;;;;5037558;28;19960;-63
2023/01/01 02:56:48;;;;;;;;;;;11.30;99.90;;;;;;5037525;28;19978;-63
2023/01/01 03:02:12;;;;;;;;;;;11.20;99.90;;;;;;5037373;28;20367;-63
2023/01/01 03:04:47;;;;;;;;;;;11.10;99.90;;;;;;5035636;28;19983;-63
2023/01/01 03:07:19;;;;;;;;;;;11.10;99.90;;;;;;5034222;28;20007;-63
2023/01/01 03:09:51;;;;;;;;;;;11.00;99.90;;;;;;5033649;28;20056;-63
2023/01/01 03:12:24;;;;;;;;;;;11.00;99.90;;;;;;5027416;28;20400;-63
2023/01/01 03:14:56;;;;;;;;;;;10.90;99.90;;;;;;5034225;28;20007;-63
2023/01/01 03:17:27;;;;;;;;;;;10.90;99.90;;;;;;5036453;28;19962;-63
2023/01/01 03:19:56;;;;;;;;;;;10.90;99.90;;;;;;5031015;28;20043;-63
2023/01/01 03:22:26;;;;;;;;;;;10.90;99.90;;;;;;5030947;28;19972;-62
2023/01/01 03:24:57;;;;;;;;;;;10.90;99.90;;;;;;5029898;28;20056;-63
2023/01/01 03:27:28;;;;;;;;;;;10.90;99.90;;;;;;5038233;28;20059;-64
2023/01/01 03:29:59;;;;;;;;;;;10.90;99.90;;;;;;5033080;28;19970;-63
2023/01/01 03:32:59;;;;;;;;;;;11.00;99.90;;;;;;5023473;28;20008;-63
2023/01/01 03:35:19;;;;;;;;;;;11.00;99.90;;;;;;5029747;28;21275;-62
2023/01/01 03:37:49;;;;;;;;;;;11.00;99.90;;;;;;5031937;28;20508;-62
2023/01/01 03:40:18;;;;;;;;;;;11.00;99.90;;;;;;5032017;28;20023;-62
2023/01/01 03:42:49;;;;;;;;;;;11.00;99.90;;;;;;5032011;28;19965;-62
2023/01/01 03:45:19;;;;;;;;;;;11.10;99.90;;;;;;5032069;28;20391;-62
2023/01/01 03:47:47;;;;;;;;;;;11.10;99.90;;;;;;5035774;28;19967;-62
2023/01/01 03:50:15;;;;;;;;;;;11.10;99.90;;;;;;5029453;28;20070;-62
2023/01/01 03:52:48;;;;;;;;;;;11.10;99.90;;;;;;5032970;28;19970;-62
2023/01/01 03:55:19;;;;;;;;;;;11.00;99.90;;;;;;5035007;28;19968;-62
2023/01/01 03:57:50;;;;;;;;;;;11.10;99.90;;;;;;5048006;28;20408;-62
2023/01/01 04:00:21;;;;;;;;;;;11.00;99.90;;;;;;5029692;28;19968;-62
2023/01/01 04:02:50;;;;;;;;;;;11.00;99.90;;;;;;5032129;28;20594;-61
2023/01/01 04:05:19;;;;;;;;;;;11.00;99.90;;;;;;5035185;28;20071;-61
2023/01/01 04:07:47;;;;;;;;;;;11.00;99.90;;;;;;5029630;28;19963;-62
2023/01/01 04:10:17;;;;;;;;;;;11.00;99.90;;;;;;5029758;28;19969;-62
2023/01/01 04:12:46;;;;;;;;;;;11.00;99.90;;;;;;5033507;28;19967;-62
2023/01/01 04:15:14;;;;;;;;;;;11.00;99.90;;;;;;5048584;28;20063;-62
2023/01/01 04:17:43;;;;;;;;;;;11.00;99.90;;;;;;5030782;28;20002;-62
2023/01/01 04:20:11;;;;;;;;;;;11.00;99.90;;;;;;5029011;28;19973;-62
2023/01/01 04:22:39;;;;;;;;;;;11.00;99.90;;;;;;5021769;28;20059;-62
2023/01/01 04:25:08;;;;;;;;;;;11.00;99.90;;;;;;5023705;28;20323;-63
2023/01/01 04:27:36;;;;;;;;;;;11.00;99.90;;;;;;5032546;28;19929;-63
2023/01/01 04:30:04;;;;;;;;;;;11.00;99.90;;;;;;5042001;28;20335;-63
2023/01/01 04:32:31;;;;;;;;;;;11.00;99.90;;;;;;5044099;28;19967;-63
2023/01/01 04:35:01;;;;;;;;;;;10.90;99.90;;;;;;5031000;28;20446;-63
2023/01/01 04:37:28;;;;;;;;;;;11.00;99.90;;;;;;5034201;28;19964;-63
2023/01/01 04:39:56;;;;;;;;;;;10.90;99.90;;;;;;5027745;28;20057;-63
2023/01/01 04:42:23;;;;;;;;;;;10.90;99.90;;;;;;5036098;28;19974;-63
2023/01/01 04:44:51;;;;;;;;;;;10.80;99.90;;;;;;5030176;28;20048;-63
2023/01/01 04:47:19;;;;;;;;;;;10.70;99.90;;;;;;5030580;28;20336;-63
2023/01/01 04:49:46;;;;;;;;;;;10.70;99.90;;;;;;5029136;28;19969;-63
2023/01/01 04:52:15;;;;;;;;;;;10.60;99.90;;;;;;5036917;28;20489;-63
2023/01/01 04:54:43;;;;;;;;;;;10.60;99.90;;;;;;5032897;28;19929;-62
2023/01/01 04:57:11;;;;;;;;;;;10.60;99.90;;;;;;5037174;28;20305;-63
2023/01/01 04:59:39;;;;;;;;;;;10.60;99.90;;;;;;5026972;28;19925;-63
2023/01/01 05:02:06;;;;;;;;;;;10.50;99.90;;;;;;5027506;28;20020;-64
2023/01/01 05:04:34;;;;;;;;;;;10.40;99.90;;;;;;5034959;28;19932;-62
2023/01/01 05:07:02;;;;;;;;;;;10.50;99.90;;;;;;5031406;28;20486;-63
2023/01/01 05:09:31;;;;;;;;;;;10.50;99.90;;;;;;5042462;28;20497;-62
2023/01/01 05:11:59;;;;;;;;;;;10.50;99.90;;;;;;5033630;28;19969;-63
2023/01/01 05:14:26;;;;;;;;;;;10.50;99.90;;;;;;5042514;28;20342;-63
2023/01/01 05:16:54;;;;;;;;;;;10.50;99.90;;;;;;5025602;28;19968;-64
2023/01/01 05:19:22;;;;;;;;;;;10.50;99.90;;;;;;5033981;28;20376;-63
2023/01/01 05:21:49;;;;;;;;;;;10.50;99.90;;;;;;5041567;28;20408;-63
2023/01/01 05:24:17;;;;;;;;;;;10.50;99.90;;;;;;5031703;28;19961;-64
2023/01/01 05:26:46;;;;;;;;;;;10.50;99.90;;;;;;5031843;28;20366;-64
2023/01/01 05:29:14;;;;;;;;;;;10.50;99.90;;;;;;5031146;28;20365;-63
2023/01/01 05:31:44;;;;;;;;;;;10.50;99.90;;;;;;5031999;28;19961;-63
2023/01/01 05:34:12;;;;;;;;;;;10.50;99.90;;;;;;5034850;28;19971;-63
2023/01/01 05:36:39;;;;;;;;;;;10.50;99.90;;;;;;5031468;28;19964;-63
2023/01/01 05:39:08;;;;;;;;;;;10.50;99.90;;;;;;5031200;28;19982;-63
2023/01/01 05:41:36;;;;;;;;;;;10.50;99.90;;;;;;5031803;28;19960;-63
2023/01/01 05:44:06;;;;;;;;;;;10.50;99.90;;;;;;5039171;28;19981;-63
2023/01/01 05:46:33;;;;;;;;;;;10.60;99.90;;;;;;5029298;28;19959;-63
2023/01/01 05:49:01;;;;;;;;;;;10.50;99.90;;;;;;5036995;28;19975;-63
2023/01/01 05:51:29;;;;;;;;;;;10.50;99.90;;;;;;5028910;28;19925;-63
2023/01/01 05:53:57;;;;;;;;;;;10.40;99.90;;;;;;5031083;28;20057;-63
2023/01/01 05:56:25;;;;;;;;;;;10.50;99.90;;;;;;5028553;28;19925;-64
2023/01/01 05:58:53;;;;;;;;;;;10.50;99.90;;;;;;5027191;28;19955;-63
2023/01/01 06:01:24;;;;;;;;;;;10.50;99.90;;;;;;5041718;28;19931;-63
2023/01/01 06:03:52;;;;;;;;;;;10.50;99.90;;;;;;5025813;28;19925;-63
2023/01/01 06:06:21;;;;;;;;;;;10.50;99.90;;;;;;5027959;28;19952;-63
2023/01/01 06:08:50;;;;;;;;;;;10.40;99.90;;;;;;5036599;28;19959;-63
2023/01/01 06:11:17;;;;;;;;;;;10.40;99.90;;;;;;5029240;28;19975;-63
2023/01/01 06:13:45;;;;;;;;;;;10.40;99.90;;;;;;5028413;28;19967;-63
2023/01/01 06:16:13;;;;;;;;;;;10.40;99.90;;;;;;5039003;28;20082;-63
2023/01/01 06:18:42;;;;;;;;;;;10.30;99.90;;;;;;5042731;28;19964;-63
2023/01/01 06:21:11;;;;;;;;;;;10.30;99.90;;;;;;5031806;28;20455;-62
2023/01/01 06:23:39;;;;;;;;;;;10.30;99.90;;;;;;5024170;28;20011;-62
2023/01/01 06:26:07;;;;;;;;;;;10.30;99.90;;;;;;5027334;28;19966;-62
2023/01/01 06:28:35;;;;;;;;;;;10.30;99.90;;;;;;5041101;28;20069;-62
2023/01/01 06:31:03;;;;;;;;;;;10.30;99.90;;;;;;5029111;28;19996;-62
2023/01/01 06:33:32;;;;;;;;;;;10.40;99.90;;;;;;5043861;28;19966;-63
2023/01/01 06:36:01;;;;;;;;;;;10.40;99.90;;;;;;5019822;28;19926;-62
2023/01/01 06:38:30;;;;;;;;;;;10.40;99.90;;;;;;5025772;28;20004;-62
2023/01/01 06:40:58;;;;;;;;;;;10.40;99.90;;;;;;5025537;28;19931;-62
2023/01/01 06:43:26;;;;;;;;;;;10.30;99.90;;;;;;5041784;28;19929;-62
2023/01/01 06:46:00;;;;;;;;;;;10.30;99.90;;;;;;5031996;28;19983;-62
2023/01/01 06:48:29;;;;;;;;;;;10.30;99.90;;;;;;5033880;28;20020;-63
2023/01/01 06:50:57;;;;;;;;;;;10.30;99.90;;;;;;5036297;28;19932;-62
2023/01/01 06:53:26;;;;;;;;;;;10.40;99.90;;;;;;5046532;28;19929;-62
2023/01/01 06:55:53;;;;;;;;;;;10.30;99.90;;;;;;5032310;28;19968;-63
2023/01/01 06:58:24;;;;;;;;;;;10.30;99.90;;;;;;5025486;28;19952;-63
2023/01/01 07:00:51;;;;;;;;;;;10.20;99.90;;;;;;5035791;28;19983;-63
2023/01/01 07:03:19;;;;;;;;;;;10.30;99.90;;;;;;5032273;28;20015;-62
2023/01/01 07:05:47;;;;;;;;;;;10.20;99.90;;;;;;5035599;28;20286;-63
2023/01/01 07:08:14;;;;;;;;;;;10.20;99.90;;;;;;5030544;28;19931;-62
2023/01/01 07:10:43;;;;;;;;;;;10.10;99.90;;;;;;5033974;28;19925;-63
2023/01/01 07:13:11;;;;;;;;;;;10.10;99.90;;;;;;5076774;22;19925;-66
2023/01/01 07:15:39;;;;;;;;;;;10.10;99.90;;;;;;5051021;28;20405;-67
2023/01/01 07:18:07;;;;;;;;;;;10.10;99.90;;;;;;5058151;28;19970;-66
2023/01/01 07:20:34;;;;;;;;;;;10.00;99.90;;;;;;5055465;28;19928;-66
2023/01/01 07:23:02;;;;;;;;;;;10.00;99.90;;;;;;5054068;28;19964;-66
2023/01/01 07:25:30;;;;;;;;;;;10.00;99.90;;;;;;5055167;28;20005;-66
2023/01/01 07:27:59;;;;;;;;;;;9.90;99.90;;;;;;5066492;28;20416;-66
2023/01/01 07:30:26;;;;;;;;;;;9.90;99.90;;;;;;5046079;28;20454;-66
2023/01/01 07:32:54;;;;;;;;;;;9.90;99.90;;;;;;5056528;28;19931;-66
2023/01/01 07:35:22;;;;;;;;;;;9.90;99.90;;;;;;5055511;28;20378;-66
2023/01/01 07:37:50;;;;;;;;;;;9.90;99.90;;;;;;5064353;28;19997;-66
2023/01/01 07:40:17;;;;;;;;;;;9.90;99.90;;;;;;5055334;28;20544;-66
2023/01/01 07:42:45;;;;;;;;;;;10.00;99.90;;;;;;5057204;28;19952;-66
2023/01/01 07:45:14;;;;;;;;;;;10.00;99.90;;;;;;5050726;28;20421;-66
2023/01/01 07:47:42;;;;;;;;;;;10.00;99.90;;;;;;5052544;28;20408;-66
2023/01/01 07:50:14;;;;;;;;;;;10.10;99.90;;;;;;5050248;28;20386;-67
2023/01/01 07:52:42;;;;;;;;;;;10.10;99.90;;;;;;5054780;28;19996;-66
2023/01/01 07:55:11;;;;;;;;;;;10.10;99.90;;;;;;5050198;28;20020;-67
2023/01/01 07:57:39;;;;;;;;;;;10.20;99.90;;;;;;5050040;28;20007;-66
2023/01/01 08:00:07;;;;;;;;;;;10.20;99.90;;;;;;5064196;28;20413;-66
2023/01/01 08:02:37;;;;;;;;;;;10.30;99.90;;;;;;5059960;28;20011;-66
2023/01/01 08:05:05;;;;;;;;;;;10.40;99.90;;;;;;5052908;28;20045;-67
2023/01/01 08:07:32;;;;;;;;;;;10.40;99.90;;;;;;5048984;28;20017;-66
2023/01/01 08:10:00;;;;;;;;;;;10.50;99.90;;;;;;5041277;28;19967;-67
2023/01/01 08:12:28;;;;;;;;;;;10.60;99.90;;;;;;5049882;28;19931;-67
2023/01/01 08:14:56;;;;;;;;;;;10.70;99.90;;;;;;5049842;28;20042;-66
2023/01/01 08:17:24;;;;;;;;;;;10.70;99.90;;;;;;5054826;28;19926;-66
2023/01/01 08:19:53;;;;;;;;;;;10.80;99.90;;;;;;5050934;28;19931;-67
2023/01/01 08:22:20;;;;;;;;;;;10.90;99.90;;;;;;5054613;28;19952;-66
2023/01/01 08:24:48;;;;;;;;;;;11.00;99.90;;;;;;5052761;28;20027;-66
2023/01/01 08:27:16;;;;;;;;;;;11.10;99.90;;;;;;5051975;28;19925;-66
2023/01/01 08:29:44;;;;;;;;;;;11.20;99.90;;;;;;5052641;28;20056;-66
2023/01/01 08:32:12;;;;;;;;;;;11.30;99.90;;;;;;5069514;28;20050;-66
2023/01/01 08:34:39;;;;;;;;;;;11.40;99.90;;;;;;5057955;28;19924;-66
2023/01/01 08:37:11;;;;;;;;;;;11.50;99.90;;;;;;5044945;28;20016;-67
2023/01/01 08:39:39;;;;;;;;;;;11.60;99.90;;;;;;5049725;28;19978;-66
2023/01/01 08:42:07;;;;;;;;;;;11.70;99.90;;;;;;5047185;28;20312;-66
2023/01/01 08:44:39;;;;;;;;;;;11.70;99.90;;;;;;5045924;28;19961;-66
2023/01/01 08:47:06;;;;;;;;;;;11.80;99.90;;;;;;5055682;28;20020;-66
2023/01/01 08:49:34;;;;;;;;;;;11.90;99.90;;;;;;5044000;28;19960;-66
2023/01/01 08:52:02;;;;;;;;;;;12.00;99.90;;;;;;5050655;28;19963;-65
2023/01/01 08:54:31;;;;;;;;;;;12.10;99.90;;;;;;5044783;28;19925;-66
2023/01/01 08:56:58;;;;;;;;;;;12.10;99.90;;;;;;5048085;28;19968;-65
2023/01/01 08:59:26;;;;;;;;;;;12.20;99.90;;;;;;5043384;28;19925;-66
2023/01/01 09:01:54;;;;;;;;;;;12.30;99.90;;;;;;5045806;28;19973;-65
2023/01/01 09:04:22;;;;;;;;;;;12.30;99.90;;;;;;5046157;28;19925;-65
2023/01/01 09:06:52;;;;;;;;;;;12.30;99.90;;;;;;5049354;28;19958;-65
2023/01/01 09:09:19;;;;;;;;;;;12.40;99.90;;;;;;5043540;28;19929;-65
2023/01/01 09:11:56;;;;;;;;;;;12.40;99.90;;;;;;5049701;28;20021;-65
2023/01/01 09:14:23;;;;;;;;;;;12.40;99.90;;;;;;5048869;28;20430;-66
2023/01/01 09:16:51;;;;;;;;;;;12.40;99.90;;;;;;5049826;28;20003;-65
2023/01/01 09:19:19;;;;;;;;;;;12.40;99.90;;;;;;5052206;28;20036;-65
2023/01/01 09:21:47;;;;;;;;;;;12.40;99.90;;;;;;5049751;28;20031;-65
2023/01/01 09:24:14;;;;;;;;;;;12.40;99.90;;;;;;5045389;28;19964;-66
2023/01/01 09:26:42;;;;;;;;;;;12.40;99.90;;;;;;5060786;28;20409;-65
2023/01/01 09:29:11;;;;;;;;;;;12.50;99.90;;;;;;5054102;28;20341;-65
2023/01/01 09:31:39;;;;;;;;;;;12.50;99.90;;;;;;5044463;28;19925;-65
2023/01/01 09:34:06;;;;;;;;;;;12.50;99.90;;;;;;5053136;28;20010;-65
2023/01/01 09:36:34;;;;;;;;;;;12.50;99.90;;;;;;5044876;28;19924;-65
2023/01/01 09:39:02;;;;;;;;;;;12.50;99.90;;;;;;5043867;28;20042;-65
2023/01/01 09:41:36;;;;;;;;;;;12.60;99.90;;;;;;5051861;28;20058;-65
2023/01/01 09:44:09;;;;;;;;;;;12.60;99.90;;;;;;5056794;28;19969;-66
2023/01/01 09:46:38;;;;;;;;;;;12.60;99.90;;;;;;5063616;28;20034;-65
2023/01/01 09:49:09;;;;;;;;;;;12.70;99.90;;;;;;5047860;28;20339;-65
2023/01/01 09:51:40;;;;;;;;;;;12.70;99.90;;;;;;5048062;28;19925;-65
2023/01/01 09:54:24;;;;;;;;;;;12.70;99.90;;;;;;5047859;28;19959;-65
2023/01/01 09:56:54;;;;;;;;;;;12.80;99.90;;;;;;5051285;28;19939;-65
2023/01/01 09:59:22;;;;;;;;;;;12.90;99.90;;;;;;5057792;28;19960;-65
2023/01/01 10:01:55;;;;;;;;;;;13.00;99.90;;;;;;5043928;28;19974;-66
2023/01/01 10:04:36;;;;;;;;;;;13.00;99.90;;;;;;5045474;28;19966;-65
2023/01/01 10:07:10;;;;;;;;;;;13.00;99.90;;;;;;5050039;28;19971;-65
2023/01/01 10:09:41;;;;;;;;;;;13.10;99.90;;;;;;5045407;28;20461;-66
2023/01/01 10:12:12;;;;;;;;;;;13.10;99.90;;;;;;5046989;28;19935;-65
2023/01/01 10:14:42;;;;;;;;;;;13.10;99.90;;;;;;5046076;28;19959;-66
2023/01/01 10:17:14;;;;;;;;;;;13.10;99.90;;;;;;5054730;28;20419;-65
2023/01/01 10:19:44;;;;;;;;;;;13.10;99.90;;;;;;5048133;28;19939;-65
2023/01/01 10:22:14;;;;;;;;;;;13.10;99.90;;;;;;5051428;28;20062;-66
2023/01/01 10:24:45;;;;;;;;;;;13.20;99.90;;;;;;5049584;28;20660;-67
2023/01/01 10:27:20;;;;;;;;;;;13.30;99.90;;;;;;5054071;28;19967;-65
2023/01/01 10:29:49;;;;;;;;;;;13.40;99.90;;;;;;5062291;28;19928;-66
2023/01/01 10:32:21;;;;;;;;;;;13.40;99.90;;;;;;5050455;28;20070;-66
2023/01/01 10:34:49;;;;;;;;;;;13.50;99.90;;;;;;5052887;28;20035;-66
2023/01/01 10:37:18;;;;;;;;;;;13.60;99.90;;;;;;5054799;28;20446;-67
2023/01/01 10:39:46;;;;;;;;;;;13.60;99.90;;;;;;5055371;28;20407;-66
2023/01/01 10:42:14;;;;;;;;;;;13.60;99.90;;;;;;5057621;28;19979;-65
2023/01/01 10:44:42;;;;;;;;;;;13.60;99.90;;;;;;5053158;28;19970;-65
2023/01/01 10:47:25;;;;;;;;;;;13.70;99.90;;;;;;5053836;28;19967;-66
2023/01/01 10:49:54;;;;;;;;;;;13.70;99.90;;;;;;5045682;28;20282;-64
2023/01/01 10:52:24;;;;;;;;;;;13.60;99.90;;;;;;5051855;28;20084;-64
2023/01/01 10:54:52;;;;;;;;;;;13.70;99.90;;;;;;5056701;28;19965;-65
2023/01/01 10:57:27;;;;;;;;;;;13.60;99.90;;;;;;5049393;28;20466;-64
2023/01/01 11:00:08;;;;;;;;;;;13.70;99.90;;;;;;5066214;28;19962;-64
2023/01/01 11:02:37;;;;;;;;;;;13.70;99.90;;;;;;5057191;28;19968;-64
2023/01/01 11:05:17;;;;;;;;;;;13.70;99.90;;;;;;5060616;28;19965;-65
2023/01/01 11:07:49;;;;;;;;;;;13.80;99.90;;;;;;5053774;28;19974;-64
2023/01/01 11:10:18;;;;;;;;;;;13.80;99.90;;;;;;5053674;28;20511;-65
2023/01/01 11:12:46;;;;;;;;;;;13.90;99.90;;;;;;5054058;28;19968;-65
2023/01/01 11:15:36;;;;;;;;;;;13.90;99.90;;;;;;5054279;28;19975;-65
2023/01/01 11:18:06;;;;;;;;;;;13.90;99.90;;;;;;5054306;28;20032;-64
2023/01/01 11:20:34;;;;;;;;;;;13.90;99.90;;;;;;5053387;28;20019;-64
2023/01/01 11:23:17;;;;;;;;;;;13.90;99.90;;;;;;5054002;28;19971;-65
2023/01/01 11:25:56;;;;;;;;;;;13.90;99.90;;;;;;5050539;28;19978;-65
2023/01/01 11:28:24;;;;;;;;;;;13.90;99.90;;;;;;5046499;28;19972;-65
2023/01/01 11:30:59;;;;;;;;;;;13.90;99.90;;;;;;5033461;28;19969;-65
2023/01/01 11:33:30;;;;;;;;;;;13.80;99.90;;;;;;5038851;28;20396;-65
2023/01/01 11:35:58;;;;;;;;;;;13.80;99.90;;;;;;5050609;28;19964;-65
2023/01/01 11:38:26;;;;;;;;;;;13.80;99.90;;;;;;5053421;28;20070;-65
2023/01/01 11:41:02;;;;;;;;;;;13.90;99.90;;;;;;5051585;28;19973;-65
2023/01/01 11:43:31;;;;;;;;;;;13.90;99.90;;;;;;5033839;28;20529;-65
2023/01/01 11:45:59;;;;;;;;;;;14.00;99.90;;;;;;5033608;28;20057;-65
2023/01/01 11:48:30;;;;;;;;;;;14.10;99.90;;;;;;5033777;28;20412;-65
2023/01/01 11:50:58;;;;;;;;;;;14.10;99.90;;;;;;5032982;28;20031;-65
2023/01/01 11:53:28;;;;;;;;;;;14.10;99.90;;;;;;5033781;28;20074;-65
2023/01/01 11:56:00;;;;;;;;;;;14.10;99.90;;;;;;5033651;28;20059;-65
2023/01/01 11:58:30;;;;;;;;;;;14.20;99.90;;;;;;5049161;28;20014;-65
2023/01/01 12:01:00;;;;;;;;;;;14.10;99.90;;;;;;5052830;28;19973;-65
2023/01/01 12:03:32;;;;;;;;;;;14.20;99.90;;;;;;5053137;28;19967;-65
2023/01/01 12:06:04;;;;;;;;;;;14.20;99.90;;;;;;5052337;28;20457;-65
2023/01/01 12:08:33;;;;;;;;;;;14.20;99.90;;;;;;5053166;28;20064;-65
2023/01/01 12:11:05;;;;;;;;;;;14.20;99.90;;;;;;5052706;28;20063;-65
2023/01/01 12:13:35;;;;;;;;;;;14.30;99.90;;;;;;5052917;28;19981;-65
2023/01/01 12:16:06;;;;;;;;;;;14.30;99.90;;;;;;5053320;28;19981;-65
2023/01/01 12:18:39;;;;;;;;;;;14.40;99.90;;;;;;5053258;28;19972;-65
2023/01/01 12:21:10;;;;;;;;;;;14.50;99.90;;;;;;5040859;28;20353;-65
2023/01/01 12:23:38;;;;;;;;;;;14.50;99.90;;;;;;5032936;28;19968;-65
2023/01/01 12:26:11;;;;;;;;;;;14.50;99.90;;;;;;5032827;28;20457;-65
2023/01/01 12:28:44;;;;;;;;;;;14.60;99.90;;;;;;5033042;28;19973;-65
2023/01/01 12:31:18;;;;;;;;;;;14.70;99.90;;;;;;5032482;28;19973;-65
2023/01/01 12:33:53;;;;;;;;;;;14.70;99.90;;;;;;5032921;28;19975;-65
2023/01/01 12:36:28;;;;;;;;;;;14.70;99.90;;;;;;5042163;28;19966;-65
2023/01/01 12:39:24;;;;;;;;;;;14.70;99.90;;;;;;5052597;28;19968;-65
2023/01/01 12:41:56;;;;;;;;;;;14.70;99.90;;;;;;5051940;28;19967;-65
2023/01/01 12:44:30;;;;;;;;;;;14.60;99.90;;;;;;5052794;28;19967;-65
2023/01/01 12:47:02;;;;;;;;;;;14.50;99.90;;;;;;5052506;28;19967;-65
2023/01/01 12:49:46;;;;;;;;;;;14.40;99.90;;;;;;5052087;28;19969;-64
2023/01/01 12:52:20;;;;;;;;;;;14.40;99.90;;;;;;5050986;28;19967;-65
2023/01/01 12:55:05;;;;;;;;;;;14.40;99.90;;;;;;5035083;28;20075;-65
2023/01/01 12:57:35;;;;;;;;;;;14.40;99.90;;;;;;5032261;28;20082;-64
2023/01/01 13:00:04;;;;;;;;;;;14.40;99.90;;;;;;5031737;28;20058;-65
2023/01/01 13:02:34;;;;;;;;;;;14.40;99.90;;;;;;5032558;28;20064;-65
2023/01/01 13:05:07;;;;;;;;;;;14.40;99.90;;;;;;5032334;28;20071;-65
2023/01/01 13:07:36;;;;;;;;;;;14.40;99.90;;;;;;5049457;28;20537;-65
2023/01/01 13:10:08;;;;;;;;;;;14.50;99.90;;;;;;5051360;28;19975;-65
2023/01/01 13:12:36;;;;;;;;;;;14.50;99.90;;;;;;5073501;22;20007;-65
2023/01/01 13:15:19;;;;;;;;;;;14.50;99.90;;;;;;5026287;28;19974;-63
2023/01/01 13:17:51;;;;;;;;;;;14.50;99.90;;;;;;5013968;28;20441;-63
2023/01/01 13:20:23;;;;;;;;;;;14.60;99.90;;;;;;5013347;28;19969;-63
2023/01/01 13:22:51;;;;;;;;;;;14.50;99.90;;;;;;5024108;28;19963;-63
2023/01/01 13:25:20;;;;;;;;;;;14.40;99.90;;;;;;5033681;28;20021;-64
2023/01/01 13:28:04;;;;;;;;;;;14.40;99.90;;;;;;5033423;28;19967;-64
2023/01/01 13:30:45;;;;;;;;;;;14.30;99.90;;;;;;5032935;28;19967;-64
2023/01/01 13:33:16;;;;;;;;;;;14.30;99.90;;;;;;5033544;28;20062;-63
2023/01/01 13:36:13;;;;;;;;;;;14.20;99.90;;;;;;5033595;28;20275;-63
2023/01/01 13:38:45;;;;;;;;;;;14.10;99.90;;;;;;5032717;28;20030;-64
2023/01/01 13:41:28;;;;;;;;;;;14.10;99.90;;;;;;5033230;28;20367;-64
2023/01/01 13:44:10;;;;;;;;;;;14.10;99.90;;;;;;5033589;28;20025;-63
2023/01/01 13:46:41;;;;;;;;;;;14.10;99.90;;;;;;5033111;28;19968;-63
2023/01/01 13:49:15;;;;;;;;;;;14.00;99.90;;;;;;5033465;28;19967;-64
2023/01/01 13:51:51;;;;;;;;;;;14.00;99.90;;;;;;5032788;28;20633;-63
2023/01/01 13:54:56;;;;;;;;;;;14.00;99.90;;;;;;5033081;28;19975;-63
2023/01/01 13:57:32;;;;;;;;;;;13.90;99.90;;;;;;5033325;28;20343;-64
2023/01/01 14:00:04;;;;;;;;;;;13.90;99.90;;;;;;5032499;28;19968;-64
2023/01/01 14:02:35;;;;;;;;;;;13.80;99.90;;;;;;5032833;28;19981;-64
2023/01/01 14:05:05;;;;;;;;;;;13.90;99.90;;;;;;5032151;28;20322;-64
2023/01/01 14:07:39;;;;;;;;;;;14.00;99.90;;;;;;5023811;28;20014;-65
2023/01/01 14:10:27;;;;;;;;;;;13.90;99.90;;;;;;5027631;28;19975;-64
2023/01/01 14:12:57;;;;;;;;;;;13.80;99.90;;;;;;5032274;28;20040;-64
2023/01/01 14:15:26;;;;;;;;;;;13.80;99.90;;;;;;5032911;28;20277;-64
2023/01/01 14:17:55;;;;;;;;;;;13.80;99.90;;;;;;5032459;28;20059;-65
2023/01/01 14:20:27;;;;;;;;;;;13.90;99.90;;;;;;5032088;28;19967;-64
2023/01/01 14:22:55;;;;;;;;;;;13.90;99.90;;;;;;5032133;28;20067;-63
2023/01/01 14:25:25;;;;;;;;;;;13.90;99.90;;;;;;5031898;28;20409;-64
2023/01/01 14:27:56;;;;;;;;;;;13.90;99.90;;;;;;5031139;28;19974;-64
2023/01/01 14:30:24;;;;;;;;;;;14.00;99.90;;;;;;5031027;28;19969;-65
2023/01/01 14:32:55;;;;;;;;;;;14.00;99.90;;;;;;5032131;28;19988;-64
2023/01/01 14:35:23;;;;;;;;;;;14.00;99.90;;;;;;5032333;28;20083;-64
2023/01/01 14:37:51;;;;;;;;;;;14.00;99.90;;;;;;5023936;28;19971;-64
2023/01/01 14:40:25;;;;;;;;;;;13.90;99.90;;;;;;5031495;28;20067;-64